sensor_id;sensor_type;location;lat;lon;timestamp;pressure;altitude;pressure_sealevel;temperature;humidity
75855;BME280;64502;59.976;30.316;2023-11-19T00:02:13;102050.06;;;-2.96;70.55
75855;BME280;64502;59.976;30.316;2023-11-19T00:04:39;102055.22;;;-2.96;70.38
75855;BME280;64502;59.976;30.316;2023-11-19T00:07:05;102045.00;;;-2.91;70.38
75855;BME280;64502;59.976;30.316;2023-11-19T00:09:35;102038.97;;;-2.90;70.26
75855;BME280;64502;59.976;30.316;2023-11-19T00:12:03;102039.00;;;-2.88;70.61
75855;BME280;64502;59.976;30.316;2023-11-19T00:14:30;102048.50;;;-2.87;70.37
75855;BME280;64502;59.976;30.316;2023-11-19T00:16:55;102042.50;;;-2.86;70.88
75855;BME280;64502;59.976;30.316;2023-11-19T00:19:21;102037.34;;;-2.85;70.21
75855;BME280;64502;59.976;30.316;2023-11-19T00:21:46;102039.06;;;-2.85;70.47
75855;BME280;64502;59.976;30.316;2023-11-19T00:24:12;102041.66;;;-2.85;69.96
75855;BME280;64502;59.976;30.316;2023-11-19T00:26:38;102038.16;;;-2.89;69.95
75855;BME280;64502;59.976;30.316;2023-11-19T00:29:04;102032.91;;;-2.92;70.63
75855;BME280;64502;59.976;30.316;2023-11-19T00:31:29;102031.16;;;-2.95;70.62
75855;BME280;64502;59.976;30.316;2023-11-19T00:33:55;102025.94;;;-2.96;71.28
75855;BME280;64502;59.976;30.316;2023-11-19T00:36:20;102020.75;;;-2.98;70.85
75855;BME280;64502;59.976;30.316;2023-11-19T00:38:46;102013.91;;;-2.96;70.14
75855;BME280;64502;59.976;30.316;2023-11-19T00:41:11;102013.09;;;-2.95;70.28
75855;BME280;64502;59.976;30.316;2023-11-19T00:43:37;102015.69;;;-2.93;70.54
75855;BME280;64502;59.976;30.316;2023-11-19T00:46:03;102010.50;;;-2.93;70.25
75855;BME280;64502;59.976;30.316;2023-11-19T00:48:32;102006.22;;;-2.93;70.55
75855;BME280;64502;59.976;30.316;2023-11-19T00:50:57;102006.22;;;-2.93;69.96
75855;BME280;64502;59.976;30.316;2023-11-19T00:53:23;102001.84;;;-2.95;69.61
75855;BME280;64502;59.976;30.316;2023-11-19T00:55:48;102007.81;;;-2.99;69.15
75855;BME280;64502;59.976;30.316;2023-11-19T00:58:13;101995.72;;;-3.02;69.54
75855;BME280;64502;59.976;30.316;2023-11-19T01:00:39;101989.66;;;-3.05;69.20
75855;BME280;64502;59.976;30.316;2023-11-19T01:03:05;101998.25;;;-3.03;69.29
75855;BME280;64502;59.976;30.316;2023-11-19T01:05:32;101996.59;;;-3.01;69.44
75855;BME280;64502;59.976;30.316;2023-11-19T01:07:58;101994.88;;;-3.01;68.87
75855;BME280;64502;59.976;30.316;2023-11-19T01:10:24;101991.47;;;-2.98;69.38
75855;BME280;64502;59.976;30.316;2023-11-19T01:12:50;101984.59;;;-2.98;68.13
75855;BME280;64502;59.976;30.316;2023-11-19T01:15:17;101982.00;;;-2.99;67.87
75855;BME280;64502;59.976;30.316;2023-11-19T01:17:44;101986.25;;;-3.01;67.88
75855;BME280;64502;59.976;30.316;2023-11-19T01:20:10;101993.09;;;-3.03;66.88
75855;BME280;64502;59.976;30.316;2023-11-19T01:22:38;101988.78;;;-3.04;67.28
75855;BME280;64502;59.976;30.316;2023-11-19T01:25:05;101986.16;;;-3.07;67.06
75855;BME280;64502;59.976;30.316;2023-11-19T01:27:30;101982.72;;;-3.08;67.32
75855;BME280;64502;59.976;30.316;2023-11-19T01:29:56;101989.56;;;-3.10;66.93
75855;BME280;64502;59.976;30.316;2023-11-19T01:32:22;101980.09;;;-3.11;67.14
75855;BME280;64502;59.976;30.316;2023-11-19T01:34:49;101981.81;;;-3.10;67.12
75855;BME280;64502;59.976;30.316;2023-11-19T01:37:15;101980.94;;;-3.09;67.29
75855;BME280;64502;59.976;30.316;2023-11-19T01:39:43;101982.75;;;-3.05;67.66
75855;BME280;64502;59.976;30.316;2023-11-19T01:42:09;101983.66;;;-3.03;67.63
75855;BME280;64502;59.976;30.316;2023-11-19T01:44:34;101984.59;;;-2.99;68.21
75855;BME280;64502;59.976;30.316;2023-11-19T01:47:00;101980.34;;;-2.96;67.95
75855;BME280;64502;59.976;30.316;2023-11-19T01:49:27;101979.47;;;-2.96;66.59
75855;BME280;64502;59.976;30.316;2023-11-19T01:51:54;101977.69;;;-2.99;66.83
75855;BME280;64502;59.976;30.316;2023-11-19T01:54:19;101973.41;;;-2.98;66.60
75855;BME280;64502;59.976;30.316;2023-11-19T01:56:45;101968.19;;;-3.03;67.04
75855;BME280;64502;59.976;30.316;2023-11-19T01:59:12;101971.63;;;-3.01;67.68
75855;BME280;64502;59.976;30.316;2023-11-19T02:01:39;101963.00;;;-3.03;67.56
75855;BME280;64502;59.976;30.316;2023-11-19T02:04:06;101963.88;;;-3.02;67.27
75855;BME280;64502;59.976;30.316;2023-11-19T02:06:34;101966.47;;;-3.02;66.86
75855;BME280;64502;59.976;30.316;2023-11-19T02:09:00;101964.69;;;-3.03;67.04
75855;BME280;64502;59.976;30.316;2023-11-19T02:11:26;101970.72;;;-3.04;67.55
75855;BME280;64502;59.976;30.316;2023-11-19T02:13:55;101970.72;;;-3.04;67.16
75855;BME280;64502;59.976;30.316;2023-11-19T02:16:21;101971.53;;;-3.07;66.65
75855;BME280;64502;59.976;30.316;2023-11-19T02:18:47;101972.34;;;-3.09;66.87
75855;BME280;64502;59.976;30.316;2023-11-19T02:21:13;101971.47;;;-3.10;66.95
75855;BME280;64502;59.976;30.316;2023-11-19T02:23:40;101970.56;;;-3.12;67.41
75855;BME280;64502;59.976;30.316;2023-11-19T02:26:16;101974.88;;;-3.13;66.57
75855;BME280;64502;59.976;30.316;2023-11-19T02:28:43;101961.81;;;-3.20;67.07
75855;BME280;64502;59.976;30.316;2023-11-19T02:31:10;101958.34;;;-3.22;67.07
75855;BME280;64502;59.976;30.316;2023-11-19T02:33:39;101959.13;;;-3.26;66.77
75855;BME280;64502;59.976;30.316;2023-11-19T02:36:05;101966.81;;;-3.29;66.56
75855;BME280;64502;59.976;30.316;2023-11-19T02:38:33;101962.47;;;-3.32;67.29
75855;BME280;64502;59.976;30.316;2023-11-19T02:41:00;101961.63;;;-3.31;66.99
75855;BME280;64502;59.976;30.316;2023-11-19T02:43:30;101968.44;;;-3.33;66.11
75855;BME280;64502;59.976;30.316;2023-11-19T02:46:01;101960.75;;;-3.31;66.41
75855;BME280;64502;59.976;30.316;2023-11-19T02:48:27;101966.78;;;-3.31;66.00
75855;BME280;64502;59.976;30.316;2023-11-19T02:50:53;101961.59;;;-3.32;66.22
75855;BME280;64502;59.976;30.316;2023-11-19T02:53:18;101955.59;;;-3.31;66.00
75855;BME280;64502;59.976;30.316;2023-11-19T02:55:47;101960.72;;;-3.33;65.80
75855;BME280;64502;59.976;30.316;2023-11-19T02:58:14;101953.00;;;-3.31;65.32
75855;BME280;64502;59.976;30.316;2023-11-19T03:00:45;101952.16;;;-3.30;64.63
75855;BME280;64502;59.976;30.316;2023-11-19T03:03:19;101946.94;;;-3.35;64.75
75855;BME280;64502;59.976;30.316;2023-11-19T03:05:51;101946.03;;;-3.37;65.66
75855;BME280;64502;59.976;30.316;2023-11-19T03:08:17;101955.53;;;-3.35;64.95
75855;BME280;64502;59.976;30.316;2023-11-19T03:10:42;101948.66;;;-3.34;65.47
75855;BME280;64502;59.976;30.316;2023-11-19T03:13:12;101942.72;;;-3.30;65.33
75855;BME280;64502;59.976;30.316;2023-11-19T03:15:39;101945.38;;;-3.27;65.35
75855;BME280;64502;59.976;30.316;2023-11-19T03:18:05;101930.78;;;-3.23;65.13
75855;BME280;64502;59.976;30.316;2023-11-19T03:20:31;101931.75;;;-3.17;65.99
75855;BME280;64502;59.976;30.316;2023-11-19T03:22:57;101932.75;;;-3.10;64.73
75855;BME280;64502;59.976;30.316;2023-11-19T03:25:28;101926.75;;;-3.09;64.40
75855;BME280;64502;59.976;30.316;2023-11-19T03:28:03;101930.19;;;-3.08;63.89
75855;BME280;64502;59.976;30.316;2023-11-19T03:30:29;101930.19;;;-3.08;63.45
75855;BME280;64502;59.976;30.316;2023-11-19T03:32:55;101927.53;;;-3.13;62.93
75855;BME280;64502;59.976;30.316;2023-11-19T03:35:22;101916.28;;;-3.17;63.05
75855;BME280;64502;59.976;30.316;2023-11-19T03:37:47;101911.00;;;-3.23;62.95
75855;BME280;64502;59.976;30.316;2023-11-19T03:40:13;101914.50;;;-3.21;63.82
75855;BME280;64502;59.976;30.316;2023-11-19T03:42:40;101912.78;;;-3.20;63.04
75855;BME280;64502;59.976;30.316;2023-11-19T03:45:08;101909.38;;;-3.19;63.69
75855;BME280;64502;59.976;30.316;2023-11-19T03:47:34;101925.78;;;-3.14;63.67
75855;BME280;64502;59.976;30.316;2023-11-19T03:50:00;101913.72;;;-3.15;63.29
75855;BME280;64502;59.976;30.316;2023-11-19T03:52:26;101913.78;;;-3.12;63.57
75855;BME280;64502;59.976;30.316;2023-11-19T03:54:55;101915.53;;;-3.11;62.36
75855;BME280;64502;59.976;30.316;2023-11-19T03:57:22;101915.50;;;-3.13;62.72
75855;BME280;64502;59.976;30.316;2023-11-19T03:59:47;101910.34;;;-3.13;62.49
75855;BME280;64502;59.976;30.316;2023-11-19T04:02:13;101906.00;;;-3.15;62.74
75855;BME280;64502;59.976;30.316;2023-11-19T04:04:39;101908.59;;;-3.14;63.54
75855;BME280;64502;59.976;30.316;2023-11-19T04:07:05;101900.06;;;-3.09;63.10
75855;BME280;64502;59.976;30.316;2023-11-19T04:09:31;101898.44;;;-3.04;62.64
75855;BME280;64502;59.976;30.316;2023-11-19T04:11:58;101888.16;;;-3.01;62.84
75855;BME280;64502;59.976;30.316;2023-11-19T04:14:24;101891.59;;;-3.01;62.73
75855;BME280;64502;59.976;30.316;2023-11-19T04:16:49;101896.72;;;-3.04;62.54
75855;BME280;64502;59.976;30.316;2023-11-19T04:19:16;101887.25;;;-3.03;62.46
75855;BME280;64502;59.976;30.316;2023-11-19T04:21:41;101882.97;;;-3.03;62.86
75855;BME280;64502;59.976;30.316;2023-11-19T04:24:08;101889.06;;;-2.98;63.26
75855;BME280;64502;59.976;30.316;2023-11-19T04:26:34;101878.81;;;-2.95;62.64
75855;BME280;64502;59.976;30.316;2023-11-19T04:28:59;101873.56;;;-2.99;62.29
75855;BME280;64502;59.976;30.316;2023-11-19T04:31:34;101884.56;;;-3.09;62.27
75855;BME280;64502;59.976;30.316;2023-11-19T04:34:00;101878.50;;;-3.13;62.09
75855;BME280;64502;59.976;30.316;2023-11-19T04:36:25;101882.81;;;-3.12;62.90
75855;BME280;64502;59.976;30.316;2023-11-19T04:38:51;101881.97;;;-3.11;63.21
75855;BME280;64502;59.976;30.316;2023-11-19T04:41:16;101886.25;;;-3.13;62.22
75855;BME280;64502;59.976;30.316;2023-11-19T04:43:42;101880.09;;;-3.20;62.11
75855;BME280;64502;59.976;30.316;2023-11-19T04:46:09;101882.72;;;-3.18;62.81
75855;BME280;64502;59.976;30.316;2023-11-19T04:48:35;101876.72;;;-3.16;62.11
75855;BME280;64502;59.976;30.316;2023-11-19T04:51:00;101871.53;;;-3.17;62.63
75855;BME280;64502;59.976;30.316;2023-11-19T04:53:26;101865.41;;;-3.24;61.86
75855;BME280;64502;59.976;30.316;2023-11-19T04:55:51;101876.47;;;-3.31;62.29
75855;BME280;64502;59.976;30.316;2023-11-19T04:58:17;101867.00;;;-3.32;62.20
75855;BME280;64502;59.976;30.316;2023-11-19T05:00:42;101863.56;;;-3.31;63.04
75855;BME280;64502;59.976;30.316;2023-11-19T05:03:08;101866.19;;;-3.29;62.46
75855;BME280;64502;59.976;30.316;2023-11-19T05:05:33;101867.06;;;-3.27;62.15
75855;BME280;64502;59.976;30.316;2023-11-19T05:07:59;101871.34;;;-3.28;61.96
75855;BME280;64502;59.976;30.316;2023-11-19T05:10:24;101867.94;;;-3.25;62.83
75855;BME280;64502;59.976;30.316;2023-11-19T05:12:50;101873.25;;;-3.18;63.10
75855;BME280;64502;59.976;30.316;2023-11-19T05:15:17;101868.94;;;-3.17;62.31
75855;BME280;64502;59.976;30.316;2023-11-19T05:17:42;101874.06;;;-3.20;61.86
75855;BME280;64502;59.976;30.316;2023-11-19T05:20:09;101867.06;;;-3.27;62.08
75855;BME280;64502;59.976;30.316;2023-11-19T05:22:42;101868.75;;;-3.28;62.97
75855;BME280;64502;59.976;30.316;2023-11-19T05:25:08;101867.06;;;-3.27;62.00
75855;BME280;64502;59.976;30.316;2023-11-19T05:27:35;101867.00;;;-3.32;62.03
75855;BME280;64502;59.976;30.316;2023-11-19T05:30:02;101867.69;;;-3.41;61.67
75855;BME280;64502;59.976;30.316;2023-11-19T05:32:28;101871.91;;;-3.44;62.36
75855;BME280;64502;59.976;30.316;2023-11-19T05:34:53;101866.75;;;-3.46;62.58
75855;BME280;64502;59.976;30.316;2023-11-19T05:37:19;101863.31;;;-3.45;62.98
75855;BME280;64502;59.976;30.316;2023-11-19T05:39:45;101860.72;;;-3.45;62.55
75855;BME280;64502;59.976;30.316;2023-11-19T05:42:10;101862.50;;;-3.42;63.26
75855;BME280;64502;59.976;30.316;2023-11-19T05:44:35;101860.88;;;-3.37;62.73
75855;BME280;64502;59.976;30.316;2023-11-19T05:47:02;101867.00;;;-3.32;62.65
75855;BME280;64502;59.976;30.316;2023-11-19T05:49:28;101859.22;;;-3.33;63.32
75855;BME280;64502;59.976;30.316;2023-11-19T05:51:53;101868.75;;;-3.28;62.90
75855;BME280;64502;59.976;30.316;2023-11-19T05:54:21;101860.16;;;-3.30;62.61
75855;BME280;64502;59.976;30.316;2023-11-19T05:56:49;101862.72;;;-3.30;62.52
75855;BME280;64502;59.976;30.316;2023-11-19T05:59:15;101863.59;;;-3.28;62.48
75855;BME280;64502;59.976;30.316;2023-11-19T06:01:43;101866.34;;;-3.19;62.42
75855;BME280;64502;59.976;30.316;2023-11-19T06:04:09;101863.88;;;-3.13;62.56
75855;BME280;64502;59.976;30.316;2023-11-19T06:06:36;101865.66;;;-3.08;61.97
75855;BME280;64502;59.976;30.316;2023-11-19T06:09:01;101862.19;;;-3.10;61.20
75855;BME280;64502;59.976;30.316;2023-11-19T06:11:27;101858.72;;;-3.13;61.66
75855;BME280;64502;59.976;30.316;2023-11-19T06:13:53;101862.16;;;-3.14;61.46
75855;BME280;64502;59.976;30.316;2023-11-19T06:16:19;101859.56;;;-3.14;62.15
75855;BME280;64502;59.976;30.316;2023-11-19T06:18:44;101860.34;;;-3.18;62.08
75855;BME280;64502;59.976;30.316;2023-11-19T06:21:11;101863.78;;;-3.17;62.06
75855;BME280;64502;59.976;30.316;2023-11-19T06:23:37;101859.47;;;-3.18;61.96
75855;BME280;64502;59.976;30.316;2023-11-19T06:26:02;101858.66;;;-3.16;62.09
75855;BME280;64502;59.976;30.316;2023-11-19T06:28:28;101862.19;;;-3.10;62.42
75855;BME280;64502;59.976;30.316;2023-11-19T06:30:55;101858.84;;;-3.03;62.58
75855;BME280;64502;59.976;30.316;2023-11-19T06:33:22;101852.94;;;-2.96;61.91
75855;BME280;64502;59.976;30.316;2023-11-19T06:35:48;101859.06;;;-2.90;61.99
75855;BME280;64502;59.976;30.316;2023-11-19T06:38:14;101847.94;;;-2.85;61.83
75855;BME280;64502;59.976;30.316;2023-11-19T06:40:40;101848.94;;;-2.76;62.42
75855;BME280;64502;59.976;30.316;2023-11-19T06:43:06;101842.16;;;-2.69;62.25
75855;BME280;64502;59.976;30.316;2023-11-19T06:45:33;101850.06;;;-2.58;62.41
75855;BME280;64502;59.976;30.316;2023-11-19T06:48:02;101857.03;;;-2.53;62.35
75855;BME280;64502;59.976;30.316;2023-11-19T06:50:31;101848.47;;;-2.49;62.93
75855;BME280;64502;59.976;30.316;2023-11-19T06:52:57;101845.91;;;-2.47;61.79
75855;BME280;64502;59.976;30.316;2023-11-19T06:55:23;101838.09;;;-2.52;62.20
75855;BME280;64502;59.976;30.316;2023-11-19T06:57:48;101842.25;;;-2.64;62.72
75855;BME280;64502;59.976;30.316;2023-11-19T07:00:14;101843.94;;;-2.65;63.25
75855;BME280;64502;59.976;30.316;2023-11-19T07:02:39;101842.28;;;-2.60;62.84
75855;BME280;64502;59.976;30.316;2023-11-19T07:05:05;101839.81;;;-2.52;62.78
75855;BME280;64502;59.976;30.316;2023-11-19T07:07:32;101845.09;;;-2.44;62.63
75855;BME280;64502;59.976;30.316;2023-11-19T07:09:58;101839.16;;;-2.36;62.40
75855;BME280;64502;59.976;30.316;2023-11-19T07:12:23;101841.00;;;-2.29;63.04
75855;BME280;64502;59.976;30.316;2023-11-19T07:14:52;101837.63;;;-2.21;62.89
75855;BME280;64502;59.976;30.316;2023-11-19T07:17:18;101832.50;;;-2.17;61.16
75855;BME280;64502;59.976;30.316;2023-11-19T07:19:46;101836.81;;;-2.16;62.48
75855;BME280;64502;59.976;30.316;2023-11-19T07:22:11;101836.84;;;-2.14;62.37
75855;BME280;64502;59.976;30.316;2023-11-19T07:24:39;101837.72;;;-2.15;61.69
75855;BME280;64502;59.976;30.316;2023-11-19T07:27:05;101833.41;;;-2.15;61.82
75855;BME280;64502;59.976;30.316;2023-11-19T07:29:32;101829.13;;;-2.11;60.43
75855;BME280;64502;59.976;30.316;2023-11-19T07:31:57;101829.06;;;-2.16;60.58
75855;BME280;64502;59.976;30.316;2023-11-19T07:34:23;101835.16;;;-2.12;61.32
75855;BME280;64502;59.976;30.316;2023-11-19T07:36:49;101827.47;;;-2.06;61.04
75855;BME280;64502;59.976;30.316;2023-11-19T07:39:15;101826.66;;;-2.01;60.54
75855;BME280;64502;59.976;30.316;2023-11-19T07:41:40;101834.47;;;-1.97;59.99
75855;BME280;64502;59.976;30.316;2023-11-19T07:44:06;101831.88;;;-1.97;60.61
75855;BME280;64502;59.976;30.316;2023-11-19T07:46:31;101829.22;;;-2.02;60.49
75855;BME280;64502;59.976;30.316;2023-11-19T07:48:57;101836.97;;;-2.04;59.80
75855;BME280;64502;59.976;30.316;2023-11-19T07:51:23;101830.88;;;-2.09;59.54
75855;BME280;64502;59.976;30.316;2023-11-19T07:53:48;101833.41;;;-2.13;60.79
75855;BME280;64502;59.976;30.316;2023-11-19T07:56:14;101839.47;;;-2.11;59.75
75855;BME280;64502;59.976;30.316;2023-11-19T07:58:40;101840.38;;;-2.09;60.00
75855;BME280;64502;59.976;30.316;2023-11-19T08:01:06;101833.50;;;-2.06;60.89
75855;BME280;64502;59.976;30.316;2023-11-19T08:03:32;101837.06;;;-1.94;62.08
75855;BME280;64502;59.976;30.316;2023-11-19T08:05:59;101834.63;;;-1.85;60.21
75855;BME280;64502;59.976;30.316;2023-11-19T08:08:25;101833.72;;;-1.86;61.11
75855;BME280;64502;59.976;30.316;2023-11-19T08:10:50;101834.66;;;-1.79;61.05
75855;BME280;64502;59.976;30.316;2023-11-19T08:13:21;101832.13;;;-1.76;61.05
75855;BME280;64502;59.976;30.316;2023-11-19T08:15:47;101827.84;;;-1.69;61.05
75855;BME280;64502;59.976;30.316;2023-11-19T08:18:13;101829.63;;;-1.65;60.74
75855;BME280;64502;59.976;30.316;2023-11-19T08:20:38;101821.91;;;-1.64;60.94
75855;BME280;64502;59.976;30.316;2023-11-19T08:23:04;101819.34;;;-1.59;61.01
75855;BME280;64502;59.976;30.316;2023-11-19T08:25:30;101821.13;;;-1.53;60.38
75855;BME280;64502;59.976;30.316;2023-11-19T08:27:56;101816.84;;;-1.48;60.71
75855;BME280;64502;59.976;30.316;2023-11-19T08:30:21;101809.09;;;-1.45;59.48
75855;BME280;64502;59.976;30.316;2023-11-19T08:32:47;101817.75;;;-1.45;61.24
75855;BME280;64502;59.976;30.316;2023-11-19T08:35:12;101823.00;;;-1.36;60.64
75855;BME280;64502;59.976;30.316;2023-11-19T08:37:37;101809.31;;;-1.25;60.32
75855;BME280;64502;59.976;30.316;2023-11-19T08:40:04;101807.63;;;-1.17;59.90
75855;BME280;64502;59.976;30.316;2023-11-19T08:42:30;101810.25;;;-1.09;59.85
75855;BME280;64502;59.976;30.316;2023-11-19T08:44:55;101796.47;;;-1.04;59.65
75855;BME280;64502;59.976;30.316;2023-11-19T08:47:21;101798.22;;;-1.04;58.89
75855;BME280;64502;59.976;30.316;2023-11-19T08:49:50;101796.50;;;-1.05;59.07
75855;BME280;64502;59.976;30.316;2023-11-19T08:52:16;101799.94;;;-1.06;59.38
75855;BME280;64502;59.976;30.316;2023-11-19T08:54:43;101796.50;;;-1.05;59.67
75855;BME280;64502;59.976;30.316;2023-11-19T08:57:09;101790.44;;;-1.04;59.48
75855;BME280;64502;59.976;30.316;2023-11-19T08:59:35;101792.22;;;-0.99;59.72
75855;BME280;64502;59.976;30.316;2023-11-19T09:02:00;101792.25;;;-0.91;58.85
75855;BME280;64502;59.976;30.316;2023-11-19T09:04:27;101797.50;;;-0.80;59.02
75855;BME280;64502;59.976;30.316;2023-11-19T09:06:52;101805.31;;;-0.74;58.83
75855;BME280;64502;59.976;30.316;2023-11-19T09:09:18;101799.28;;;-0.73;58.12
75855;BME280;64502;59.976;30.316;2023-11-19T09:11:43;101793.25;;;-0.69;58.60
75855;BME280;64502;59.976;30.316;2023-11-19T09:14:09;101796.75;;;-0.62;57.40
75855;BME280;64502;59.976;30.316;2023-11-19T09:16:34;101788.13;;;-0.61;57.96
75855;BME280;64502;59.976;30.316;2023-11-19T09:19:00;101789.84;;;-0.60;57.55
75855;BME280;64502;59.976;30.316;2023-11-19T09:21:27;101788.13;;;-0.61;57.54
75855;BME280;64502;59.976;30.316;2023-11-19T09:23:52;101784.63;;;-0.63;57.26
75855;BME280;64502;59.976;30.316;2023-11-19T09:26:19;101787.28;;;-0.59;57.36
75855;BME280;64502;59.976;30.316;2023-11-19T09:28:44;101779.50;;;-0.56;57.26
75855;BME280;64502;59.976;30.316;2023-11-19T09:31:17;101780.41;;;-0.51;57.66
75855;BME280;64502;59.976;30.316;2023-11-19T09:33:43;101784.63;;;-0.70;56.56
75855;BME280;64502;59.976;30.316;2023-11-19T09:36:09;101774.22;;;-0.71;57.68
75855;BME280;64502;59.976;30.316;2023-11-19T09:38:36;101779.44;;;-0.70;57.02
75855;BME280;64502;59.976;30.316;2023-11-19T09:41:05;101775.88;;;-0.85;56.69
75855;BME280;64502;59.976;30.316;2023-11-19T09:43:34;101778.38;;;-1.05;56.09
75855;BME280;64502;59.976;30.316;2023-11-19T09:46:05;101780.91;;;-1.15;56.05
75855;BME280;64502;59.976;30.316;2023-11-19T09:48:33;101781.66;;;-1.26;57.01
75855;BME280;64502;59.976;30.316;2023-11-19T09:51:00;101783.41;;;-1.24;56.90
75855;BME280;64502;59.976;30.316;2023-11-19T09:53:27;101780.84;;;-1.21;56.86
75855;BME280;64502;59.976;30.316;2023-11-19T09:55:53;101777.44;;;-1.14;57.33
75855;BME280;64502;59.976;30.316;2023-11-19T09:58:19;101766.28;;;-1.05;56.93
75855;BME280;64502;59.976;30.316;2023-11-19T10:00:44;101762.00;;;-0.98;55.69
75855;BME280;64502;59.976;30.316;2023-11-19T10:03:11;101764.56;;;-1.01;55.68
75855;BME280;64502;59.976;30.316;2023-11-19T10:05:37;101762.81;;;-1.05;55.72
75855;BME280;64502;59.976;30.316;2023-11-19T10:08:06;101755.09;;;-1.01;56.52
75855;BME280;64502;59.976;30.316;2023-11-19T10:10:33;101761.19;;;-0.93;56.52
75855;BME280;64502;59.976;30.316;2023-11-19T10:13:00;101752.56;;;-0.88;56.19
75855;BME280;64502;59.976;30.316;2023-11-19T10:15:26;101749.91;;;-1.01;56.11
75855;BME280;64502;59.976;30.316;2023-11-19T10:18:01;101745.59;;;-0.96;57.24
75855;BME280;64502;59.976;30.316;2023-11-19T10:20:26;101743.03;;;-0.91;55.49
75855;BME280;64502;59.976;30.316;2023-11-19T10:22:55;101740.44;;;-0.91;55.45
75855;BME280;64502;59.976;30.316;2023-11-19T10:25:28;101745.63;;;-0.94;55.81
75855;BME280;64502;59.976;30.316;2023-11-19T10:27:55;101747.31;;;-0.96;55.88
75855;BME280;64502;59.976;30.316;2023-11-19T10:30:22;101749.09;;;-0.91;56.21
75855;BME280;64502;59.976;30.316;2023-11-19T10:33:06;101737.06;;;-0.81;56.38
75855;BME280;64502;59.976;30.316;2023-11-19T10:35:33;101737.09;;;-0.70;56.58
75855;BME280;64502;59.976;30.316;2023-11-19T10:38:25;101747.53;;;-0.56;56.92
75855;BME280;64502;59.976;30.316;2023-11-19T10:40:52;101739.78;;;-0.52;55.56
75855;BME280;64502;59.976;30.316;2023-11-19T10:43:22;101739.78;;;-0.49;56.06
75855;BME280;64502;59.976;30.316;2023-11-19T10:45:49;101744.13;;;-0.49;56.18
75855;BME280;64502;59.976;30.316;2023-11-19T10:48:15;101746.69;;;-0.48;55.85
75855;BME280;64502;59.976;30.316;2023-11-19T10:50:42;101744.13;;;-0.46;56.21
75855;BME280;64502;59.976;30.316;2023-11-19T10:53:09;101742.41;;;-0.42;55.75
75855;BME280;64502;59.976;30.316;2023-11-19T10:55:37;101745.00;;;-0.39;55.87
75855;BME280;64502;59.976;30.316;2023-11-19T10:58:07;101741.56;;;-0.40;55.76
75855;BME280;64502;59.976;30.316;2023-11-19T11:00:46;101741.56;;;-0.37;56.00
75855;BME280;64502;59.976;30.316;2023-11-19T11:03:20;101731.22;;;-0.32;56.09
75855;BME280;64502;59.976;30.316;2023-11-19T11:05:51;101737.28;;;-0.26;56.13
75855;BME280;64502;59.976;30.316;2023-11-19T11:08:19;101732.09;;;-0.23;55.29
75855;BME280;64502;59.976;30.316;2023-11-19T11:10:52;101732.09;;;-0.23;54.62
75855;BME280;64502;59.976;30.316;2023-11-19T11:13:19;101732.06;;;-0.26;55.82
75855;BME280;64502;59.976;30.316;2023-11-19T11:15:45;101722.56;;;-0.33;55.40
75855;BME280;64502;59.976;30.316;2023-11-19T11:18:13;101727.72;;;-0.39;55.76
75855;BME280;64502;59.976;30.316;2023-11-19T11:20:39;101722.50;;;-0.45;56.14
75855;BME280;64502;59.976;30.316;2023-11-19T11:28:58;101725.13;;;-0.36;55.17
75855;BME280;64502;59.976;30.316;2023-11-19T11:31:48;101726.84;;;-0.39;55.57
75855;BME280;64502;59.976;30.316;2023-11-19T11:39:33;101720.84;;;-0.35;55.52
75855;BME280;64502;59.976;30.316;2023-11-19T11:45:05;101721.69;;;-0.29;55.05
75855;BME280;64502;59.976;30.316;2023-11-19T11:50:12;101722.50;;;-0.51;54.99
75855;BME280;64502;59.976;30.316;2023-11-19T11:55:26;101710.25;;;-0.89;55.17
75855;BME280;64502;59.976;30.316;2023-11-19T11:57:53;101714.47;;;-1.05;56.37
75855;BME280;64502;59.976;30.316;2023-11-19T12:00:26;101716.09;;;-1.21;57.05
75855;BME280;64502;59.976;30.316;2023-11-19T12:02:55;101716.00;;;-1.36;57.68
75855;BME280;64502;59.976;30.316;2023-11-19T12:05:21;101710.75;;;-1.47;58.33
75855;BME280;64502;59.976;30.316;2023-11-19T12:08:04;101705.50;;;-1.53;59.13
75855;BME280;64502;59.976;30.316;2023-11-19T12:10:45;101705.47;;;-1.59;58.75
75855;BME280;64502;59.976;30.316;2023-11-19T12:13:12;101703.63;;;-1.72;59.27
75855;BME280;64502;59.976;30.316;2023-11-19T12:18:29;101703.47;;;-1.92;60.32
75855;BME280;64502;59.976;30.316;2023-11-19T12:20:56;101709.47;;;-1.98;60.12
75855;BME280;64502;59.976;30.316;2023-11-19T12:23:26;101704.22;;;-2.03;60.17
75855;BME280;64502;59.976;30.316;2023-11-19T12:25:52;101708.56;;;-2.05;60.58
75855;BME280;64502;59.976;30.316;2023-11-19T12:28:18;101706.75;;;-2.10;59.83
75855;BME280;64502;59.976;30.316;2023-11-19T12:30:44;101707.53;;;-2.16;60.02
75855;BME280;64502;59.976;30.316;2023-11-19T12:33:12;101703.22;;;-2.20;59.72
75855;BME280;64502;59.976;30.316;2023-11-19T12:35:42;101702.31;;;-2.22;61.02
75855;BME280;64502;59.976;30.316;2023-11-19T12:38:24;101700.56;;;-2.25;61.10
75855;BME280;64502;59.976;30.316;2023-11-19T12:41:06;101704.03;;;-2.24;61.40
75855;BME280;64502;59.976;30.316;2023-11-19T12:43:32;101707.50;;;-2.24;61.40
75855;BME280;64502;59.976;30.316;2023-11-19T12:46:00;101705.75;;;-2.25;61.19
75855;BME280;64502;59.976;30.316;2023-11-19T12:48:25;101700.53;;;-2.28;60.68
75855;BME280;64502;59.976;30.316;2023-11-19T12:53:22;101695.31;;;-2.34;60.87
75855;BME280;64502;59.976;30.316;2023-11-19T12:55:48;101697.00;;;-2.36;61.16
75855;BME280;64502;59.976;30.316;2023-11-19T12:58:34;101697.91;;;-2.34;61.33
75855;BME280;64502;59.976;30.316;2023-11-19T13:01:06;101698.75;;;-2.36;61.83
75855;BME280;64502;59.976;30.316;2023-11-19T13:03:36;101699.53;;;-2.40;61.88
75855;BME280;64502;59.976;30.316;2023-11-19T13:06:04;101689.19;;;-2.40;61.80